sensor_id;sensor_type;location;lat;lon;timestamp;P1;durP1;ratioP1;P2;durP2;ratioP2
32535;SDS011;18974;50.838;4.636;2023-04-24T00:00:45;25.88;;;12.32;;
32535;SDS011;18974;50.838;4.636;2023-04-24T00:03:12;20.00;;;12.23;;
32535;SDS011;18974;50.838;4.636;2023-04-24T00:05:38;28.63;;;12.45;;
32535;SDS011;18974;50.838;4.636;2023-04-24T00:08:05;28.95;;;13.30;;
32535;SDS011;18974;50.838;4.636;2023-04-24T00:10:31;21.90;;;13.40;;
32535;SDS011;18974;50.838;4.636;2023-04-24T00:12:57;25.73;;;13.98;;
32535;SDS011;18974;50.838;4.636;2023-04-24T00:15:22;28.92;;;13.50;;
32535;SDS011;18974;50.838;4.636;2023-04-24T00:17:48;31.42;;;14.07;;
32535;SDS011;18974;50.838;4.636;2023-04-24T00:20:14;27.17;;;12.73;;
32535;SDS011;18974;50.838;4.636;2023-04-24T00:22:40;27.52;;;13.13;;
32535;SDS011;18974;50.838;4.636;2023-04-24T00:25:05;24.55;;;13.13;;
32535;SDS011;18974;50.838;4.636;2023-04-24T00:27:31;32.30;;;13.30;;
32535;SDS011;18974;50.838;4.636;2023-04-24T00:29:57;27.35;;;13.15;;
32535;SDS011;18974;50.838;4.636;2023-04-24T00:32:23;30.45;;;12.70;;
32535;SDS011;18974;50.838;4.636;2023-04-24T00:34:49;25.73;;;12.90;;
32535;SDS011;18974;50.838;4.636;2023-04-24T00:37:14;27.27;;;12.88;;
32535;SDS011;18974;50.838;4.636;2023-04-24T00:39:40;28.75;;;13.77;;
32535;SDS011;18974;50.838;4.636;2023-04-24T00:42:06;24.75;;;12.65;;
32535;SDS011;18974;50.838;4.636;2023-04-24T00:44:35;31.83;;;14.10;;
32535;SDS011;18974;50.838;4.636;2023-04-24T00:47:00;27.00;;;13.27;;
32535;SDS011;18974;50.838;4.636;2023-04-24T00:49:27;28.95;;;13.23;;
32535;SDS011;18974;50.838;4.636;2023-04-24T00:51:52;19.13;;;12.15;;
32535;SDS011;18974;50.838;4.636;2023-04-24T00:54:18;21.75;;;12.45;;
32535;SDS011;18974;50.838;4.636;2023-04-24T00:56:45;29.52;;;13.25;;
32535;SDS011;18974;50.838;4.636;2023-04-24T00:59:11;23.50;;;12.93;;
32535;SDS011;18974;50.838;4.636;2023-04-24T01:01:38;26.85;;;13.98;;
32535;SDS011;18974;50.838;4.636;2023-04-24T01:04:07;24.92;;;13.05;;
32535;SDS011;18974;50.838;4.636;2023-04-24T01:06:34;22.48;;;12.82;;
32535;SDS011;18974;50.838;4.636;2023-04-24T01:09:03;25.30;;;12.82;;
32535;SDS011;18974;50.838;4.636;2023-04-24T01:11:29;31.90;;;13.00;;
32535;SDS011;18974;50.838;4.636;2023-04-24T01:13:55;28.15;;;11.90;;
32535;SDS011;18974;50.838;4.636;2023-04-24T01:16:21;26.63;;;12.77;;
32535;SDS011;18974;50.838;4.636;2023-04-24T01:18:47;24.33;;;13.15;;
32535;SDS011;18974;50.838;4.636;2023-04-24T01:21:14;22.15;;;12.68;;
32535;SDS011;18974;50.838;4.636;2023-04-24T01:23:43;28.15;;;13.02;;
32535;SDS011;18974;50.838;4.636;2023-04-24T01:26:10;23.33;;;12.18;;
32535;SDS011;18974;50.838;4.636;2023-04-24T01:28:36;20.15;;;11.07;;
32535;SDS011;18974;50.838;4.636;2023-04-24T01:31:02;17.48;;;10.63;;
32535;SDS011;18974;50.838;4.636;2023-04-24T01:33:28;27.95;;;12.13;;
32535;SDS011;18974;50.838;4.636;2023-04-24T01:35:54;26.13;;;11.25;;
32535;SDS011;18974;50.838;4.636;2023-04-24T01:38:20;20.50;;;11.20;;
32535;SDS011;18974;50.838;4.636;2023-04-24T01:40:45;17.52;;;11.02;;
32535;SDS011;18974;50.838;4.636;2023-04-24T01:43:12;23.83;;;11.43;;
32535;SDS011;18974;50.838;4.636;2023-04-24T01:45:38;20.65;;;11.07;;
32535;SDS011;18974;50.838;4.636;2023-04-24T01:48:04;18.85;;;11.50;;
32535;SDS011;18974;50.838;4.636;2023-04-24T01:50:30;18.17;;;11.60;;
32535;SDS011;18974;50.838;4.636;2023-04-24T01:52:56;18.85;;;10.35;;
32535;SDS011;18974;50.838;4.636;2023-04-24T01:55:21;23.73;;;11.35;;
32535;SDS011;18974;50.838;4.636;2023-04-24T01:57:47;21.83;;;11.52;;
32535;SDS011;18974;50.838;4.636;2023-04-24T02:00:13;17.10;;;10.27;;
32535;SDS011;18974;50.838;4.636;2023-04-24T02:02:40;19.67;;;10.63;;
32535;SDS011;18974;50.838;4.636;2023-04-24T02:05:06;21.17;;;10.52;;
32535;SDS011;18974;50.838;4.636;2023-04-24T02:07:33;20.77;;;11.43;;
32535;SDS011;18974;50.838;4.636;2023-04-24T02:09:58;21.15;;;12.18;;
32535;SDS011;18974;50.838;4.636;2023-04-24T02:12:24;17.15;;;11.73;;
32535;SDS011;18974;50.838;4.636;2023-04-24T02:14:50;22.55;;;12.23;;
32535;SDS011;18974;50.838;4.636;2023-04-24T02:17:15;21.95;;;12.52;;
32535;SDS011;18974;50.838;4.636;2023-04-24T02:19:42;24.38;;;13.63;;
32535;SDS011;18974;50.838;4.636;2023-04-24T02:22:07;27.60;;;13.13;;
32535;SDS011;18974;50.838;4.636;2023-04-24T02:24:33;28.42;;;14.23;;
32535;SDS011;18974;50.838;4.636;2023-04-24T02:26:59;21.17;;;14.32;;
32535;SDS011;18974;50.838;4.636;2023-04-24T02:29:25;26.92;;;14.95;;
32535;SDS011;18974;50.838;4.636;2023-04-24T02:31:50;27.25;;;14.25;;
32535;SDS011;18974;50.838;4.636;2023-04-24T02:34:16;24.55;;;14.43;;
32535;SDS011;18974;50.838;4.636;2023-04-24T02:36:42;22.77;;;13.55;;
32535;SDS011;18974;50.838;4.636;2023-04-24T02:39:07;24.73;;;15.30;;
32535;SDS011;18974;50.838;4.636;2023-04-24T02:41:33;30.33;;;14.38;;
32535;SDS011;18974;50.838;4.636;2023-04-24T02:43:59;25.77;;;14.07;;
32535;SDS011;18974;50.838;4.636;2023-04-24T02:46:25;28.30;;;14.80;;
32535;SDS011;18974;50.838;4.636;2023-04-24T02:48:50;20.73;;;13.23;;
32535;SDS011;18974;50.838;4.636;2023-04-24T02:51:16;26.95;;;14.02;;
32535;SDS011;18974;50.838;4.636;2023-04-24T02:53:42;24.02;;;13.30;;
32535;SDS011;18974;50.838;4.636;2023-04-24T02:56:08;23.52;;;12.82;;
32535;SDS011;18974;50.838;4.636;2023-04-24T02:58:33;24.85;;;12.40;;
32535;SDS011;18974;50.838;4.636;2023-04-24T03:01:00;21.85;;;11.98;;
32535;SDS011;18974;50.838;4.636;2023-04-24T03:03:26;21.15;;;13.02;;
32535;SDS011;18974;50.838;4.636;2023-04-24T03:05:51;23.75;;;12.55;;
32535;SDS011;18974;50.838;4.636;2023-04-24T03:08:17;22.15;;;12.95;;
32535;SDS011;18974;50.838;4.636;2023-04-24T03:10:43;21.38;;;12.25;;
32535;SDS011;18974;50.838;4.636;2023-04-24T03:13:09;17.98;;;11.05;;
32535;SDS011;18974;50.838;4.636;2023-04-24T03:15:35;14.98;;;10.85;;
32535;SDS011;18974;50.838;4.636;2023-04-24T03:18:00;16.75;;;10.98;;
32535;SDS011;18974;50.838;4.636;2023-04-24T03:20:27;18.45;;;11.55;;
32535;SDS011;18974;50.838;4.636;2023-04-24T03:22:53;18.15;;;10.98;;
32535;SDS011;18974;50.838;4.636;2023-04-24T03:25:19;15.13;;;10.55;;
32535;SDS011;18974;50.838;4.636;2023-04-24T03:27:45;19.02;;;9.73;;
32535;SDS011;18974;50.838;4.636;2023-04-24T03:30:11;17.48;;;10.20;;
32535;SDS011;18974;50.838;4.636;2023-04-24T03:32:37;16.20;;;9.88;;
32535;SDS011;18974;50.838;4.636;2023-04-24T03:35:04;18.00;;;9.82;;
32535;SDS011;18974;50.838;4.636;2023-04-24T03:37:32;19.23;;;10.55;;
32535;SDS011;18974;50.838;4.636;2023-04-24T03:39:57;20.83;;;10.05;;
32535;SDS011;18974;50.838;4.636;2023-04-24T03:42:23;18.95;;;9.93;;
32535;SDS011;18974;50.838;4.636;2023-04-24T03:44:48;22.88;;;10.10;;
32535;SDS011;18974;50.838;4.636;2023-04-24T03:47:14;14.30;;;9.80;;
32535;SDS011;18974;50.838;4.636;2023-04-24T03:49:40;21.70;;;10.73;;
32535;SDS011;18974;50.838;4.636;2023-04-24T03:52:06;17.67;;;9.70;;
32535;SDS011;18974;50.838;4.636;2023-04-24T03:54:31;21.67;;;9.70;;
32535;SDS011;18974;50.838;4.636;2023-04-24T03:56:57;14.88;;;9.27;;
32535;SDS011;18974;50.838;4.636;2023-04-24T03:59:23;22.33;;;9.25;;
32535;SDS011;18974;50.838;4.636;2023-04-24T04:01:48;13.75;;;8.52;;
32535;SDS011;18974;50.838;4.636;2023-04-24T04:04:14;15.23;;;9.23;;
32535;SDS011;18974;50.838;4.636;2023-04-24T04:06:40;10.55;;;7.18;;
32535;SDS011;18974;50.838;4.636;2023-04-24T04:09:06;13.75;;;7.45;;
32535;SDS011;18974;50.838;4.636;2023-04-24T04:11:32;9.63;;;6.05;;
32535;SDS011;18974;50.838;4.636;2023-04-24T04:13:58;9.63;;;7.07;;
32535;SDS011;18974;50.838;4.636;2023-04-24T04:16:23;10.25;;;5.60;;
32535;SDS011;18974;50.838;4.636;2023-04-24T04:18:49;10.82;;;6.38;;
32535;SDS011;18974;50.838;4.636;2023-04-24T04:21:15;11.38;;;6.55;;
32535;SDS011;18974;50.838;4.636;2023-04-24T04:23:41;9.77;;;6.85;;
32535;SDS011;18974;50.838;4.636;2023-04-24T04:26:07;10.98;;;6.72;;
32535;SDS011;18974;50.838;4.636;2023-04-24T04:28:33;10.77;;;6.70;;
32535;SDS011;18974;50.838;4.636;2023-04-24T04:30:59;11.50;;;6.68;;
32535;SDS011;18974;50.838;4.636;2023-04-24T04:33:26;12.15;;;6.22;;
32535;SDS011;18974;50.838;4.636;2023-04-24T04:35:52;14.25;;;6.32;;
32535;SDS011;18974;50.838;4.636;2023-04-24T04:38:18;11.80;;;6.05;;
32535;SDS011;18974;50.838;4.636;2023-04-24T04:40:44;11.27;;;6.22;;
32535;SDS011;18974;50.838;4.636;2023-04-24T04:43:10;9.23;;;5.88;;
32535;SDS011;18974;50.838;4.636;2023-04-24T04:45:38;9.77;;;6.50;;
32535;SDS011;18974;50.838;4.636;2023-04-24T04:48:06;10.48;;;6.40;;
32535;SDS011;18974;50.838;4.636;2023-04-24T04:50:37;11.68;;;6.20;;
32535;SDS011;18974;50.838;4.636;2023-04-24T04:53:03;11.80;;;6.88;;
32535;SDS011;18974;50.838;4.636;2023-04-24T04:55:30;13.77;;;7.32;;
32535;SDS011;18974;50.838;4.636;2023-04-24T04:57:56;12.25;;;6.78;;
32535;SDS011;18974;50.838;4.636;2023-04-24T05:00:22;9.77;;;6.68;;
32535;SDS011;18974;50.838;4.636;2023-04-24T05:02:50;25.42;;;6.93;;
32535;SDS011;18974;50.838;4.636;2023-04-24T05:05:16;12.40;;;6.90;;
32535;SDS011;18974;50.838;4.636;2023-04-24T05:07:42;10.65;;;6.53;;
32535;SDS011;18974;50.838;4.636;2023-04-24T05:10:09;14.50;;;7.53;;
32535;SDS011;18974;50.838;4.636;2023-04-24T05:12:34;14.38;;;9.00;;
32535;SDS011;18974;50.838;4.636;2023-04-24T05:15:00;15.48;;;8.23;;
32535;SDS011;18974;50.838;4.636;2023-04-24T05:17:26;17.20;;;8.57;;
32535;SDS011;18974;50.838;4.636;2023-04-24T05:19:51;16.35;;;9.25;;
32535;SDS011;18974;50.838;4.636;2023-04-24T05:22:17;18.88;;;11.00;;
32535;SDS011;18974;50.838;4.636;2023-04-24T05:24:45;20.80;;;9.57;;
32535;SDS011;18974;50.838;4.636;2023-04-24T05:27:12;15.70;;;8.82;;
32535;SDS011;18974;50.838;4.636;2023-04-24T05:29:37;18.85;;;9.35;;
32535;SDS011;18974;50.838;4.636;2023-04-24T05:32:03;14.82;;;8.98;;
32535;SDS011;18974;50.838;4.636;2023-04-24T05:34:29;19.02;;;9.55;;
32535;SDS011;18974;50.838;4.636;2023-04-24T05:36:55;24.98;;;11.88;;
32535;SDS011;18974;50.838;4.636;2023-04-24T05:39:21;20.50;;;11.63;;
32535;SDS011;18974;50.838;4.636;2023-04-24T05:41:46;21.05;;;11.98;;
32535;SDS011;18974;50.838;4.636;2023-04-24T05:44:12;23.05;;;11.10;;
32535;SDS011;18974;50.838;4.636;2023-04-24T05:46:38;18.52;;;11.50;;
32535;SDS011;18974;50.838;4.636;2023-04-24T05:49:03;17.83;;;11.57;;
32535;SDS011;18974;50.838;4.636;2023-04-24T05:51:29;22.58;;;12.80;;
32535;SDS011;18974;50.838;4.636;2023-04-24T05:53:56;22.80;;;11.68;;
32535;SDS011;18974;50.838;4.636;2023-04-24T05:56:22;22.33;;;12.20;;
32535;SDS011;18974;50.838;4.636;2023-04-24T05:58:48;25.50;;;12.30;;
32535;SDS011;18974;50.838;4.636;2023-04-24T06:01:14;23.23;;;12.23;;
32535;SDS011;18974;50.838;4.636;2023-04-24T06:03:40;27.02;;;12.10;;
32535;SDS011;18974;50.838;4.636;2023-04-24T06:06:06;22.77;;;11.88;;
32535;SDS011;18974;50.838;4.636;2023-04-24T06:08:32;21.48;;;11.82;;
32535;SDS011;18974;50.838;4.636;2023-04-24T06:10:58;20.33;;;11.57;;
32535;SDS011;18974;50.838;4.636;2023-04-24T06:13:24;25.08;;;12.25;;
32535;SDS011;18974;50.838;4.636;2023-04-24T06:15:50;29.00;;;12.55;;
32535;SDS011;18974;50.838;4.636;2023-04-24T06:18:16;28.98;;;12.73;;
32535;SDS011;18974;50.838;4.636;2023-04-24T06:20:42;31.05;;;13.73;;
32535;SDS011;18974;50.838;4.636;2023-04-24T06:23:08;21.52;;;13.27;;
32535;SDS011;18974;50.838;4.636;2023-04-24T06:25:33;28.20;;;14.27;;
32535;SDS011;18974;50.838;4.636;2023-04-24T06:27:59;24.00;;;13.40;;
32535;SDS011;18974;50.838;4.636;2023-04-24T06:30:26;24.25;;;13.15;;
32535;SDS011;18974;50.838;4.636;2023-04-24T06:32:53;26.08;;;13.63;;
32535;SDS011;18974;50.838;4.636;2023-04-24T06:35:18;25.38;;;12.68;;
32535;SDS011;18974;50.838;4.636;2023-04-24T06:37:44;22.35;;;13.32;;
32535;SDS011;18974;50.838;4.636;2023-04-24T06:40:10;28.23;;;13.20;;
32535;SDS011;18974;50.838;4.636;2023-04-24T06:42:36;30.20;;;13.40;;
32535;SDS011;18974;50.838;4.636;2023-04-24T06:45:02;27.45;;;15.13;;
32535;SDS011;18974;50.838;4.636;2023-04-24T06:47:28;32.05;;;14.82;;
32535;SDS011;18974;50.838;4.636;2023-04-24T06:49:54;32.78;;;13.80;;
32535;SDS011;18974;50.838;4.636;2023-04-24T06:52:20;32.53;;;14.90;;
32535;SDS011;18974;50.838;4.636;2023-04-24T06:54:46;30.42;;;14.88;;
32535;SDS011;18974;50.838;4.636;2023-04-24T06:57:11;33.67;;;15.45;;
32535;SDS011;18974;50.838;4.636;2023-04-24T06:59:37;30.05;;;15.93;;
32535;SDS011;18974;50.838;4.636;2023-04-24T07:02:11;26.95;;;14.95;;
32535;SDS011;18974;50.838;4.636;2023-04-24T07:04:37;31.30;;;16.08;;
32535;SDS011;18974;50.838;4.636;2023-04-24T07:07:02;32.40;;;16.77;;
32535;SDS011;18974;50.838;4.636;2023-04-24T07:09:29;34.20;;;15.45;;
32535;SDS011;18974;50.838;4.636;2023-04-24T07:11:55;33.08;;;15.77;;
32535;SDS011;18974;50.838;4.636;2023-04-24T07:14:21;28.77;;;16.08;;
32535;SDS011;18974;50.838;4.636;2023-04-24T07:16:47;33.58;;;16.25;;
32535;SDS011;18974;50.838;4.636;2023-04-24T07:19:12;32.47;;;16.30;;
32535;SDS011;18974;50.838;4.636;2023-04-24T07:21:39;29.15;;;15.05;;
32535;SDS011;18974;50.838;4.636;2023-04-24T07:24:04;27.83;;;15.60;;
32535;SDS011;18974;50.838;4.636;2023-04-24T07:26:34;28.85;;;16.10;;
32535;SDS011;18974;50.838;4.636;2023-04-24T07:28:59;30.17;;;15.60;;
32535;SDS011;18974;50.838;4.636;2023-04-24T07:31:25;42.97;;;16.52;;
32535;SDS011;18974;50.838;4.636;2023-04-24T07:33:51;31.65;;;15.80;;
32535;SDS011;18974;50.838;4.636;2023-04-24T07:36:16;34.05;;;14.40;;
32535;SDS011;18974;50.838;4.636;2023-04-24T07:38:44;31.88;;;15.57;;
32535;SDS011;18974;50.838;4.636;2023-04-24T07:41:10;32.60;;;15.60;;
32535;SDS011;18974;50.838;4.636;2023-04-24T07:43:36;28.45;;;14.23;;
32535;SDS011;18974;50.838;4.636;2023-04-24T07:46:02;34.90;;;13.88;;
32535;SDS011;18974;50.838;4.636;2023-04-24T07:48:28;24.35;;;13.43;;
32535;SDS011;18974;50.838;4.636;2023-04-24T07:50:53;31.73;;;14.55;;
32535;SDS011;18974;50.838;4.636;2023-04-24T07:53:19;25.13;;;13.43;;
32535;SDS011;18974;50.838;4.636;2023-04-24T07:55:45;26.05;;;12.18;;
32535;SDS011;18974;50.838;4.636;2023-04-24T07:58:11;19.63;;;11.30;;
32535;SDS011;18974;50.838;4.636;2023-04-24T08:00:37;25.85;;;11.88;;
32535;SDS011;18974;50.838;4.636;2023-04-24T08:03:02;30.75;;;12.18;;
32535;SDS011;18974;50.838;4.636;2023-04-24T08:05:28;25.30;;;11.02;;
32535;SDS011;18974;50.838;4.636;2023-04-24T08:07:54;22.15;;;10.25;;
32535;SDS011;18974;50.838;4.636;2023-04-24T08:10:21;23.73;;;11.18;;
32535;SDS011;18974;50.838;4.636;2023-04-24T08:12:47;25.50;;;10.43;;
32535;SDS011;18974;50.838;4.636;2023-04-24T08:15:13;24.60;;;11.32;;
32535;SDS011;18974;50.838;4.636;2023-04-24T08:17:39;26.30;;;9.82;;
32535;SDS011;18974;50.838;4.636;2023-04-24T08:20:05;22.27;;;9.75;;
32535;SDS011;18974;50.838;4.636;2023-04-24T08:22:35;25.40;;;8.93;;
32535;SDS011;18974;50.838;4.636;2023-04-24T08:25:01;26.08;;;9.63;;
32535;SDS011;18974;50.838;4.636;2023-04-24T08:27:27;20.27;;;9.60;;
32535;SDS011;18974;50.838;4.636;2023-04-24T08:29:53;20.13;;;9.15;;
32535;SDS011;18974;50.838;4.636;2023-04-24T08:32:19;23.38;;;8.85;;
32535;SDS011;18974;50.838;4.636;2023-04-24T08:34:45;19.27;;;9.13;;
32535;SDS011;18974;50.838;4.636;2023-04-24T08:37:11;23.67;;;9.88;;
32535;SDS011;18974;50.838;4.636;2023-04-24T08:39:37;19.35;;;10.45;;
32535;SDS011;18974;50.838;4.636;2023-04-24T08:42:02;16.73;;;8.20;;
32535;SDS011;18974;50.838;4.636;2023-04-24T08:44:32;16.02;;;7.38;;
32535;SDS011;18974;50.838;4.636;2023-04-24T08:46:59;22.40;;;8.32;;
32535;SDS011;18974;50.838;4.636;2023-04-24T08:49:27;18.70;;;7.30;;
32535;SDS011;18974;50.838;4.636;2023-04-24T08:51:53;22.17;;;7.85;;
32535;SDS011;18974;50.838;4.636;2023-04-24T08:54:20;17.10;;;7.43;;
32535;SDS011;18974;50.838;4.636;2023-04-24T08:56:47;14.02;;;7.00;;
32535;SDS011;18974;50.838;4.636;2023-04-24T08:59:16;15.48;;;7.38;;
32535;SDS011;18974;50.838;4.636;2023-04-24T09:01:43;17.35;;;5.90;;
32535;SDS011;18974;50.838;4.636;2023-04-24T09:04:10;17.27;;;6.22;;
32535;SDS011;18974;50.838;4.636;2023-04-24T09:06:39;18.67;;;6.63;;
32535;SDS011;18974;50.838;4.636;2023-04-24T09:09:05;19.25;;;6.57;;
32535;SDS011;18974;50.838;4.636;2023-04-24T09:11:32;17.60;;;5.95;;
32535;SDS011;18974;50.838;4.636;2023-04-24T09:13:58;16.00;;;5.55;;
32535;SDS011;18974;50.838;4.636;2023-04-24T09:16:25;12.40;;;5.75;;
32535;SDS011;18974;50.838;4.636;2023-04-24T09:18:51;20.48;;;5.57;;
32535;SDS011;18974;50.838;4.636;2023-04-24T09:21:17;16.35;;;5.07;;
32535;SDS011;18974;50.838;4.636;2023-04-24T09:23:45;14.77;;;5.18;;
32535;SDS011;18974;50.838;4.636;2023-04-24T09:26:10;13.95;;;5.30;;
32535;SDS011;18974;50.838;4.636;2023-04-24T09:28:38;21.80;;;4.90;;
32535;SDS011;18974;50.838;4.636;2023-04-24T09:33:40;13.90;;;4.38;;
32535;SDS011;18974;50.838;4.636;2023-04-24T09:36:34;12.85;;;4.63;;
32535;SDS011;18974;50.838;4.636;2023-04-24T09:39:05;12.85;;;4.45;;
32535;SDS011;18974;50.838;4.636;2023-04-24T09:41:35;13.65;;;4.53;;
32535;SDS011;18974;50.838;4.636;2023-04-24T09:44:20;9.70;;;4.57;;
32535;SDS011;18974;50.838;4.636;2023-04-24T09:46:51;7.80;;;4.07;;
32535;SDS011;18974;50.838;4.636;2023-04-24T09:49:22;15.75;;;4.50;;
32535;SDS011;18974;50.838;4.636;2023-04-24T09:51:49;9.82;;;4.25;;
32535;SDS011;18974;50.838;4.636;2023-04-24T09:54:16;13.18;;;4.38;;
32535;SDS011;18974;50.838;4.636;2023-04-24T09:56:46;12.90;;;4.15;;
32535;SDS011;18974;50.838;4.636;2023-04-24T09:59:14;11.95;;;4.50;;
32535;SDS011;18974;50.838;4.636;2023-04-24T10:01:41;12.38;;;4.63;;
32535;SDS011;18974;50.838;4.636;2023-04-24T10:04:23;9.45;;;4.20;;
32535;SDS011;18974;50.838;4.636;2023-04-24T10:06:51;12.93;;;4.70;;
32535;SDS011;18974;50.838;4.636;2023-04-24T10:09:19;11.88;;;4.20;;
32535;SDS011;18974;50.838;4.636;2023-04-24T10:11:47;10.32;;;4.10;;
32535;SDS011;18974;50.838;4.636;2023-04-24T10:14:15;9.38;;;4.10;;
32535;SDS011;18974;50.838;4.636;2023-04-24T10:16:45;12.52;;;3.83;;
32535;SDS011;18974;50.838;4.636;2023-04-24T10:19:12;12.18;;;4.15;;
32535;SDS011;18974;50.838;4.636;2023-04-24T10:21:40;11.95;;;3.83;;
32535;SDS011;18974;50.838;4.636;2023-04-24T10:24:10;7.57;;;3.80;;
32535;SDS011;18974;50.838;4.636;2023-04-24T10:26:37;13.43;;;3.58;;
32535;SDS011;18974;50.838;4.636;2023-04-24T10:29:05;6.85;;;3.40;;
32535;SDS011;18974;50.838;4.636;2023-04-24T10:31:36;8.73;;;4.07;;
32535;SDS011;18974;50.838;4.636;2023-04-24T10:34:02;11.68;;;3.72;;
32535;SDS011;18974;50.838;4.636;2023-04-24T10:36:29;9.65;;;3.80;;
32535;SDS011;18974;50.838;4.636;2023-04-24T10:38:57;11.55;;;3.40;;
32535;SDS011;18974;50.838;4.636;2023-04-24T10:41:25;8.95;;;3.65;;
32535;SDS011;18974;50.838;4.636;2023-04-24T10:44:04;10.25;;;3.28;;
32535;SDS011;18974;50.838;4.636;2023-04-24T10:46:35;8.25;;;3.58;;
32535;SDS011;18974;50.838;4.636;2023-04-24T10:49:10;13.25;;;4.03;;
32535;SDS011;18974;50.838;4.636;2023-04-24T10:51:46;13.38;;;3.67;;
32535;SDS011;18974;50.838;4.636;2023-04-24T10:54:28;7.32;;;3.90;;
32535;SDS011;18974;50.838;4.636;2023-04-24T10:59:48;10.65;;;4.03;;
32535;SDS011;18974;50.838;4.636;2023-04-24T11:02:15;10.55;;;4.07;;
32535;SDS011;18974;50.838;4.636;2023-04-24T11:04:41;7.07;;;3.72;;
32535;SDS011;18974;50.838;4.636;2023-04-24T11:07:08;7.47;;;3.53;;
32535;SDS011;18974;50.838;4.636;2023-04-24T11:09:35;11.75;;;3.60;;
32535;SDS011;18974;50.838;4.636;2023-04-24T11:12:11;10.57;;;4.18;;
32535;SDS011;18974;50.838;4.636;2023-04-24T11:20:22;6.78;;;3.90;;
32535;SDS011;18974;50.838;4.636;2023-04-24T11:22:48;9.63;;;4.82;;
32535;SDS011;18974;50.838;4.636;2023-04-24T11:25:19;8.10;;;4.00;;
32535;SDS011;18974;50.838;4.636;2023-04-24T11:27:47;9.32;;;3.92;;
32535;SDS011;18974;50.838;4.636;2023-04-24T11:30:18;11.30;;;4.47;;
32535;SDS011;18974;50.838;4.636;2023-04-24T11:32:49;7.88;;;4.15;;
32535;SDS011;18974;50.838;4.636;2023-04-24T11:35:17;8.85;;;3.78;;
32535;SDS011;18974;50.838;4.636;2023-04-24T11:37:49;9.93;;;4.63;;
32535;SDS011;18974;50.838;4.636;2023-04-24T11:40:18;12.02;;;4.35;;
32535;SDS011;18974;50.838;4.636;2023-04-24T11:42:51;10.93;;;4.50;;
32535;SDS011;18974;50.838;4.636;2023-04-24T11:45:22;8.70;;;4.15;;
32535;SDS011;18974;50.838;4.636;2023-04-24T11:47:57;11.52;;;4.07;;
32535;SDS011;18974;50.838;4.636;2023-04-24T11:50:24;6.65;;;4.45;;
32535;SDS011;18974;50.838;4.636;2023-04-24T11:52:51;7.43;;;4.15;;
32535;SDS011;18974;50.838;4.636;2023-04-24T11:57:44;8.52;;;4.53;;
32535;SDS011;18974;50.838;4.636;2023-04-24T12:00:20;11.95;;;4.80;;
32535;SDS011;18974;50.838;4.636;2023-04-24T12:02:47;8.18;;;4.40;;
32535;SDS011;18974;50.838;4.636;2023-04-24T12:05:23;8.80;;;4.40;;
32535;SDS011;18974;50.838;4.636;2023-04-24T12:07:50;10.75;;;4.20;;
32535;SDS011;18974;50.838;4.636;2023-04-24T12:10:20;10.10;;;4.40;;
32535;SDS011;18974;50.838;4.636;2023-04-24T12:12:51;6.78;;;4.00;;
32535;SDS011;18974;50.838;4.636;2023-04-24T12:15:21;9.48;;;4.60;;
32535;SDS011;18974;50.838;4.636;2023-04-24T12:17:47;11.75;;;5.05;;
32535;SDS011;18974;50.838;4.636;2023-04-24T12:20:15;11.98;;;4.95;;
32535;SDS011;18974;50.838;4.636;2023-04-24T12:22:51;9.50;;;4.80;;
32535;SDS011;18974;50.838;4.636;2023-04-24T12:25:33;9.55;;;5.05;;
32535;SDS011;18974;50.838;4.636;2023-04-24T12:30:31;11.05;;;4.72;;
32535;SDS011;18974;50.838;4.636;2023-04-24T12:32:59;10.27;;;5.22;;
32535;SDS011;18974;50.838;4.636;2023-04-24T12:35:28;9.55;;;5.05;;
32535;SDS011;18974;50.838;4.636;2023-04-24T12:38:04;8.32;;;5.03;;
32535;SDS011;18974;50.838;4.636;2023-04-24T12:40:33;7.20;;;4.97;;
32535;SDS011;18974;50.838;4.636;2023-04-24T12:43:01;8.90;;;4.32;;
32535;SDS011;18974;50.838;4.636;2023-04-24T12:45:37;10.00;;;3.67;;
32535;SDS011;18974;50.838;4.636;2023-04-24T12:48:03;8.55;;;4.43;;
32535;SDS011;18974;50.838;4.636;2023-04-24T12:50:28;5.22;;;3.88;;
32535;SDS011;18974;50.838;4.636;2023-04-24T12:52:54;9.55;;;3.67;;
32535;SDS011;18974;50.838;4.636;2023-04-24T12:55:20;6.18;;;3.78;;
32535;SDS011;18974;50.838;4.636;2023-04-24T12:57:45;8.88;;;3.22;;
32535;SDS011;18974;50.838;4.636;2023-04-24T13:00:11;8.32;;;3.65;;
32535;SDS011;18974;50.838;4.636;2023-04-24T13:02:37;9.45;;;4.00;;
32535;SDS011;18974;50.838;4.636;2023-04-24T13:05:03;6.13;;;3.13;;
32535;SDS011;18974;50.838;4.636;2023-04-24T13:07:29;6.30;;;3.55;;
32535;SDS011;18974;50.838;4.636;2023-04-24T13:09:55;6.80;;;3.92;;
32535;SDS011;18974;50.838;4.636;2023-04-24T13:12:22;6.65;;;3.88;;
32535;SDS011;18974;50.838;4.636;2023-04-24T13:14:51;8.77;;;3.22;;
32535;SDS011;18974;50.838;4.636;2023-04-24T13:17:17;5.72;;;3.28;;
32535;SDS011;18974;50.838;4.636;2023-04-24T13:19:43;5.72;;;3.17;;
32535;SDS011;18974;50.838;4.636;2023-04-24T13:22:09;6.28;;;3.20;;
32535;SDS011;18974;50.838;4.636;2023-04-24T13:24:37;5.47;;;2.95;;
32535;SDS011;18974;50.838;4.636;2023-04-24T13:27:04;6.03;;;3.00;;
32535;SDS011;18974;50.838;4.636;2023-04-24T13:29:30;7.68;;;3.00;;
32535;SDS011;18974;50.838;4.636;2023-04-24T13:31:56;5.30;;;2.72;;
32535;SDS011;18974;50.838;4.636;2023-04-24T13:34:24;7.68;;;3.85;;
32535;SDS011;18974;50.838;4.636;2023-04-24T13:36:52;10.57;;;3.65;;
32535;SDS011;18974;50.838;4.636;2023-04-24T13:39:19;5.97;;;2.90;;
32535;SDS011;18974;50.838;4.636;2023-04-24T13:41:45;4.45;;;2.50;;
32535;SDS011;18974;50.838;4.636;2023-04-24T13:44:15;5.90;;;2.88;;
32535;SDS011;18974;50.838;4.636;2023-04-24T13:46:42;8.57;;;2.58;;
32535;SDS011;18974;50.838;4.636;2023-04-24T13:49:10;4.55;;;2.63;;
32535;SDS011;18974;50.838;4.636;2023-04-24T13:51:36;6.43;;;2.80;;
32535;SDS011;18974;50.838;4.636;2023-04-24T13:54:02;4.55;;;2.97;;
32535;SDS011;18974;50.838;4.636;2023-04-24T13:56:27;8.35;;;3.20;;
32535;SDS011;18974;50.838;4.636;2023-04-24T13:58:53;7.10;;;2.95;;
32535;SDS011;18974;50.838;4.636;2023-04-24T14:01:19;8.23;;;2.80;;
32535;SDS011;18974;50.838;4.636;2023-04-24T14:03:49;9.00;;;3.53;;
32535;SDS011;18974;50.838;4.636;2023-04-24T14:06:15;8.35;;;3.00;;
32535;SDS011;18974;50.838;4.636;2023-04-24T14:08:41;6.80;;;2.33;;
32535;SDS011;18974;50.838;4.636;2023-04-24T14:11:06;4.38;;;2.20;;
32535;SDS011;18974;50.838;4.636;2023-04-24T14:13:32;5.25;;;2.15;;
32535;SDS011;18974;50.838;4.636;2023-04-24T14:15:58;5.53;;;2.45;;
32535;SDS011;18974;50.838;4.636;2023-04-24T14:18:23;5.50;;;2.40;;
32535;SDS011;18974;50.838;4.636;2023-04-24T14:20:49;6.28;;;2.35;;
32535;SDS011;18974;50.838;4.636;2023-04-24T14:23:15;4.32;;;2.50;;
32535;SDS011;18974;50.838;4.636;2023-04-24T14:25:41;11.65;;;2.65;;
32535;SDS011;18974;50.838;4.636;2023-04-24T14:28:09;9.30;;;2.30;;
32535;SDS011;18974;50.838;4.636;2023-04-24T14:30:35;8.18;;;3.05;;
32535;SDS011;18974;50.838;4.636;2023-04-24T14:33:02;6.30;;;2.53;;
32535;SDS011;18974;50.838;4.636;2023-04-24T14:35:28;10.88;;;2.30;;
32535;SDS011;18974;50.838;4.636;2023-04-24T14:37:56;5.72;;;2.40;;
32535;SDS011;18974;50.838;4.636;2023-04-24T14:40:22;10.48;;;2.58;;
32535;SDS011;18974;50.838;4.636;2023-04-24T14:42:47;7.30;;;2.50;;
32535;SDS011;18974;50.838;4.636;2023-04-24T14:45:13;5.95;;;2.33;;